createdAt,value
2018-12-19T00:02:26.413Z,2.82
2018-12-19T00:05:00.228Z,2.81
2018-12-19T00:07:34.207Z,2.14
2018-12-19T00:10:08.521Z,2.48
2018-12-19T00:12:42.449Z,2.61
2018-12-19T00:15:16.560Z,2.69
2018-12-19T00:17:50.468Z,2.78
2018-12-19T00:20:24.275Z,2.84
2018-12-19T00:22:58.155Z,2.87
2018-12-19T00:25:32.059Z,2.86
2018-12-19T00:28:06.207Z,2.82
2018-12-19T00:30:40.417Z,2.81
2018-12-19T00:33:14.423Z,2.81
2018-12-19T00:35:48.106Z,2.77
2018-12-19T00:38:21.906Z,2.77
2018-12-19T00:40:55.680Z,2.76
2018-12-19T00:43:29.642Z,2.83
2018-12-19T00:46:03.728Z,2.79
2018-12-19T00:48:37.764Z,2.40
2018-12-19T00:51:11.574Z,2.69
2018-12-19T00:53:45.682Z,2.74
2018-12-19T00:56:19.589Z,2.49
2018-12-19T00:58:53.352Z,2.39
2018-12-19T01:01:27.507Z,2.46
2018-12-19T01:04:01.121Z,2.50
2018-12-19T01:06:34.963Z,2.51
2018-12-19T01:09:08.922Z,2.61
2018-12-19T01:11:42.784Z,2.51
2018-12-19T01:14:16.817Z,2.55
2018-12-19T01:16:50.866Z,2.47
2018-12-19T01:19:24.959Z,2.57
2018-12-19T01:21:58.807Z,2.57
2018-12-19T01:24:32.772Z,2.63
2018-12-19T01:27:07.601Z,2.62
2018-12-19T01:29:41.340Z,2.57
2018-12-19T01:32:15.141Z,2.37
2018-12-19T01:34:48.896Z,2.57
2018-12-19T01:37:22.923Z,2.67
2018-12-19T01:39:56.690Z,2.52
2018-12-19T01:42:30.738Z,2.23
2018-12-19T01:45:06.741Z,2.53
2018-12-19T01:47:40.510Z,2.72
2018-12-19T01:50:14.609Z,2.66
2018-12-19T01:52:48.517Z,2.62
2018-12-19T01:55:22.315Z,2.60
2018-12-19T01:57:56.436Z,2.71
2018-12-19T02:00:32.080Z,2.77
2018-12-19T02:03:06.198Z,2.81
2018-12-19T02:05:40.100Z,2.64
2018-12-19T02:08:14.007Z,2.81
2018-12-19T02:10:47.813Z,2.79
2018-12-19T02:13:21.822Z,2.91
2018-12-19T02:15:55.626Z,3.13
2018-12-19T02:18:29.636Z,3.34
2018-12-19T02:21:03.457Z,3.45
2018-12-19T02:23:37.556Z,3.49
2018-12-19T02:26:11.184Z,3.48
2018-12-19T02:28:45.162Z,3.49
2018-12-19T02:31:18.967Z,3.56
2018-12-19T02:33:52.976Z,3.76
2018-12-19T02:36:26.988Z,4.13
2018-12-19T02:39:00.855Z,4.22
2018-12-19T02:41:35.009Z,4.32
2018-12-19T02:44:08.860Z,4.36
2018-12-19T02:46:43.001Z,4.49
2018-12-19T02:49:17.034Z,4.49
2018-12-19T02:51:51.044Z,4.50
2018-12-19T02:54:25.395Z,4.51
2018-12-19T02:56:59.168Z,4.46
2018-12-19T02:59:33.149Z,4.34
2018-12-19T03:02:07.202Z,4.32
2018-12-19T03:04:41.194Z,4.28
2018-12-19T03:07:15.204Z,4.22
2018-12-19T03:09:48.821Z,3.96
2018-12-19T03:12:22.917Z,4.20
2018-12-19T03:14:56.668Z,4.20
2018-12-19T03:17:30.729Z,4.24
2018-12-19T03:20:04.945Z,4.03
2018-12-19T03:22:38.954Z,3.95
2018-12-19T03:25:12.831Z,3.73
2018-12-19T03:27:46.972Z,4.04
2018-12-19T03:30:20.758Z,3.84
2018-12-19T03:32:54.993Z,3.64
2018-12-19T03:35:28.900Z,3.46
2018-12-19T03:38:02.911Z,3.39
2018-12-19T03:40:36.718Z,3.88
2018-12-19T03:43:10.564Z,4.02
2018-12-19T03:45:44.530Z,4.18
2018-12-19T03:48:23.966Z,3.93
2018-12-19T03:50:58.024Z,3.81
2018-12-19T03:53:32.062Z,3.70
2018-12-19T03:56:06.198Z,3.88
2018-12-19T03:58:40.105Z,3.95
2018-12-19T04:01:13.909Z,4.45
2018-12-19T04:03:47.715Z,4.61
2018-12-19T04:06:21.464Z,-1.02
2018-12-19T04:08:55.529Z,5.05
2018-12-19T04:11:29.339Z,5.18
2018-12-19T04:14:03.145Z,5.04
2018-12-19T04:16:37.369Z,5.25
2018-12-19T04:19:11.261Z,5.35
2018-12-19T04:21:45.174Z,5.25
2018-12-19T04:24:18.919Z,5.35
2018-12-19T04:26:52.957Z,5.36
2018-12-19T04:29:27.094Z,5.38
2018-12-19T04:32:01.014Z,5.42
2018-12-19T04:34:35.013Z,5.43
2018-12-19T04:37:08.920Z,5.46
2018-12-19T04:39:42.627Z,5.41
2018-12-19T04:42:16.528Z,5.30
2018-12-19T04:44:50.439Z,4.95
2018-12-19T04:47:24.450Z,4.58
2018-12-19T04:49:58.555Z,4.91
2018-12-19T04:52:32.657Z,5.09
2018-12-19T04:55:06.780Z,5.26
2018-12-19T04:57:40.792Z,5.26
2018-12-19T05:00:14.777Z,5.10
2018-12-19T05:02:48.813Z,5.17
2018-12-19T05:05:22.820Z,5.09
2018-12-19T05:07:57.138Z,5.17
2018-12-19T05:10:31.046Z,5.10
2018-12-19T05:13:04.852Z,5.00
2018-12-19T05:15:38.762Z,5.22
2018-12-19T05:18:12.661Z,5.30
2018-12-19T05:20:46.468Z,5.25
2018-12-19T05:23:20.579Z,5.30
2018-12-19T05:25:54.383Z,5.41
2018-12-19T05:28:28.291Z,5.45
2018-12-19T05:31:02.914Z,5.43
2018-12-19T05:33:36.923Z,5.38
2018-12-19T05:36:10.934Z,5.34
2018-12-19T05:38:44.739Z,5.40
2018-12-19T05:41:18.851Z,5.50
2018-12-19T05:43:52.685Z,5.55
2018-12-19T05:46:26.666Z,5.67
2018-12-19T05:49:00.540Z,5.69
2018-12-19T05:51:34.527Z,5.74
2018-12-19T05:54:08.595Z,5.57
2018-12-19T05:56:42.397Z,5.56
2018-12-19T05:59:16.411Z,5.59
2018-12-19T06:01:50.417Z,5.62
2018-12-19T06:04:24.260Z,5.69
2018-12-19T06:06:58.017Z,5.66
2018-12-19T06:09:31.839Z,5.40
2018-12-19T06:12:05.530Z,5.25
2018-12-19T06:14:39.356Z,4.97
2018-12-19T06:17:13.348Z,4.98
2018-12-19T06:19:47.152Z,4.70
2018-12-19T06:22:21.274Z,5.22
2018-12-19T06:24:55.171Z,5.49
2018-12-19T06:27:28.976Z,5.62
2018-12-19T06:30:02.883Z,5.67
2018-12-19T06:32:37.301Z,5.73
2018-12-19T06:35:11.224Z,5.80
2018-12-19T06:37:45.017Z,5.84
2018-12-19T06:40:18.928Z,5.83
2018-12-19T06:42:54.316Z,5.78
2018-12-19T06:45:28.169Z,5.82
2018-12-19T06:48:02.386Z,5.79
2018-12-19T06:50:36.495Z,5.83
2018-12-19T06:53:10.403Z,5.83
2018-12-19T06:55:44.200Z,5.79
2018-12-19T06:58:18.218Z,5.79
2018-12-19T07:00:51.894Z,5.82
2018-12-19T07:03:25.928Z,5.83
2018-12-19T07:05:59.938Z,5.79
2018-12-19T07:08:33.948Z,5.67
2018-12-19T07:11:07.722Z,5.65
2018-12-19T07:13:41.864Z,5.40
2018-12-19T07:16:15.877Z,5.34
2018-12-19T07:18:49.678Z,5.46
2018-12-19T07:21:23.586Z,5.39
2018-12-19T07:23:57.698Z,5.48
2018-12-19T07:26:31.605Z,5.44
2018-12-19T07:29:05.320Z,5.66
2018-12-19T07:31:39.317Z,5.74
2018-12-19T07:34:13.227Z,5.59
2018-12-19T07:36:47.047Z,5.58
2018-12-19T07:39:21.039Z,5.38
2018-12-19T07:41:55.048Z,5.61
2018-12-19T07:44:29.060Z,5.49
2018-12-19T07:47:02.864Z,5.08
2018-12-19T07:49:36.684Z,5.32
2018-12-19T07:52:10.575Z,5.42
2018-12-19T07:54:44.485Z,5.15
2018-12-19T07:57:18.287Z,4.69
2018-12-19T07:59:52.053Z,5.02
2018-12-19T08:02:26.100Z,5.44
2018-12-19T08:05:00.008Z,5.58
2018-12-19T08:07:33.916Z,5.78
2018-12-19T08:10:07.926Z,5.93
2018-12-19T08:12:41.934Z,6.03
2018-12-19T08:15:15.844Z,6.16
2018-12-19T08:17:49.708Z,6.23
2018-12-19T08:20:23.655Z,6.24
2018-12-19T08:22:57.531Z,6.30
2018-12-19T08:25:31.470Z,6.26
2018-12-19T08:28:05.684Z,6.29
2018-12-19T08:30:39.594Z,6.40
2018-12-19T08:33:13.408Z,6.43
2018-12-19T08:35:47.611Z,6.03
2018-12-19T08:38:21.344Z,5.77
2018-12-19T08:40:58.718Z,5.69
2018-12-19T08:43:30.972Z,5.95
2018-12-19T08:46:04.674Z,6.02
2018-12-19T08:48:38.598Z,5.58
2018-12-19T08:51:12.455Z,5.55
2018-12-19T08:53:46.349Z,5.63
2018-12-19T08:56:20.259Z,5.61
2018-12-19T08:58:54.210Z,5.89
2018-12-19T09:01:28.221Z,5.79
2018-12-19T09:04:02.127Z,5.80
2018-12-19T09:06:36.034Z,5.76
2018-12-19T09:09:09.793Z,6.13
2018-12-19T09:11:43.645Z,6.30
2018-12-19T09:14:17.616Z,6.25
2018-12-19T09:16:51.687Z,5.54
2018-12-19T09:19:25.678Z,5.67
2018-12-19T09:21:59.785Z,5.54
2018-12-19T09:24:33.897Z,5.73
2018-12-19T09:27:07.802Z,5.47
2018-12-19T09:29:41.655Z,5.31
2018-12-19T09:32:15.719Z,5.79
2018-12-19T09:34:49.426Z,5.60
2018-12-19T09:37:23.369Z,6.11
2018-12-19T09:39:57.133Z,6.44
2018-12-19T09:42:30.805Z,6.41
2018-12-19T09:45:04.845Z,6.37
2018-12-19T09:47:38.878Z,6.56
2018-12-19T09:50:12.659Z,6.61
2018-12-19T09:52:46.469Z,6.13
2018-12-19T09:55:20.475Z,6.26
2018-12-19T09:57:54.381Z,6.32
2018-12-19T10:00:28.390Z,5.80
2018-12-19T10:03:02.351Z,5.74
2018-12-19T10:05:36.311Z,5.83
2018-12-19T10:08:10.219Z,6.31
2018-12-19T10:10:44.124Z,6.48
2018-12-19T10:13:17.927Z,6.76
2018-12-19T10:15:51.833Z,6.89
2018-12-19T10:18:25.843Z,6.96
2018-12-19T10:20:59.853Z,6.94
2018-12-19T10:23:33.863Z,6.94
2018-12-19T10:26:12.888Z,7.03
2018-12-19T10:28:46.796Z,7.08
2018-12-19T10:31:20.808Z,6.63
2018-12-19T10:33:54.817Z,6.23
2018-12-19T10:36:34.561Z,6.53
2018-12-19T10:39:12.931Z,6.69
2018-12-19T10:41:46.950Z,6.81
2018-12-19T10:44:20.941Z,6.58
2018-12-19T10:46:55.129Z,6.71
2018-12-19T10:49:29.071Z,6.77
2018-12-19T10:52:03.225Z,6.91
2018-12-19T10:54:37.101Z,6.50
2018-12-19T10:57:11.143Z,6.70
2018-12-19T10:59:45.264Z,6.39
2018-12-19T11:02:19.264Z,6.33
2018-12-19T11:04:54.335Z,6.16
2018-12-19T11:07:28.512Z,6.48
2018-12-19T11:10:02.160Z,6.37
2018-12-19T11:12:36.028Z,6.79
2018-12-19T11:15:10.298Z,6.56
2018-12-19T11:17:44.353Z,6.93
2018-12-19T11:20:19.382Z,7.15
2018-12-19T11:22:53.286Z,7.00
2018-12-19T11:25:27.079Z,7.14
2018-12-19T11:28:01.100Z,7.05
2018-12-19T11:30:35.008Z,6.60
2018-12-19T11:33:09.020Z,6.78
2018-12-19T11:35:42.827Z,6.67
2018-12-19T11:38:16.729Z,7.05
2018-12-19T11:40:50.500Z,6.92
2018-12-19T11:43:24.745Z,7.02
2018-12-19T11:45:58.662Z,7.08
2018-12-19T11:48:32.871Z,6.91
2018-12-19T11:51:06.680Z,6.87
2018-12-19T11:53:40.891Z,6.63
2018-12-19T11:56:14.586Z,6.59
2018-12-19T11:58:48.397Z,6.73
2018-12-19T12:01:22.108Z,6.70
2018-12-19T12:03:56.006Z,6.90
2018-12-19T12:06:29.874Z,6.97
2018-12-19T12:09:06.176Z,6.79
2018-12-19T12:11:45.601Z,6.71
2018-12-19T12:14:16.349Z,6.67
2018-12-19T12:16:50.561Z,6.78
2018-12-19T12:19:24.372Z,6.88
2018-12-19T12:21:58.581Z,7.06
2018-12-19T12:24:32.378Z,7.39
2018-12-19T12:27:06.394Z,7.41
2018-12-19T12:29:40.204Z,6.98
2018-12-19T12:32:14.400Z,7.26
2018-12-19T12:34:48.426Z,7.11
2018-12-19T12:37:22.433Z,7.17
2018-12-19T12:39:56.237Z,7.28
2018-12-19T12:42:30.042Z,7.31
2018-12-19T12:45:04.885Z,7.61
2018-12-19T12:47:38.883Z,7.38
2018-12-19T12:50:12.633Z,7.46
2018-12-19T12:52:46.695Z,7.36
2018-12-19T12:55:20.604Z,7.68
2018-12-19T12:57:54.579Z,7.33
2018-12-19T13:00:28.568Z,7.44
2018-12-19T13:03:02.631Z,7.42
2018-12-19T13:05:36.538Z,7.58
2018-12-19T13:08:10.287Z,7.59
2018-12-19T13:10:44.250Z,7.42
2018-12-19T13:13:17.959Z,7.61
2018-12-19T13:15:51.757Z,7.52
2018-12-19T13:18:25.665Z,7.60
2018-12-19T13:20:59.376Z,7.30
2018-12-19T13:23:33.378Z,6.98
2018-12-19T13:26:07.369Z,7.21
2018-12-19T13:28:41.400Z,7.07
2018-12-19T13:31:15.302Z,7.17
2018-12-19T13:33:49.210Z,7.21
2018-12-19T13:36:23.380Z,7.23
2018-12-19T13:38:57.320Z,7.34
2018-12-19T13:41:31.444Z,7.52
2018-12-19T13:44:05.225Z,7.82
2018-12-19T13:46:39.372Z,7.99
2018-12-19T13:49:13.226Z,8.11
2018-12-19T13:51:47.175Z,7.96
2018-12-19T13:54:20.981Z,8.09
2018-12-19T13:56:54.886Z,8.30
2018-12-19T13:59:28.866Z,8.29
2018-12-19T14:02:02.908Z,8.41
2018-12-19T14:04:36.997Z,8.43
2018-12-19T14:07:11.336Z,8.48
2018-12-19T14:09:45.402Z,8.56
2018-12-19T14:12:19.458Z,8.47
2018-12-19T14:14:53.173Z,8.38
2018-12-19T14:17:27.378Z,8.39
2018-12-19T14:20:01.178Z,8.44
2018-12-19T14:22:34.983Z,8.56
2018-12-19T14:25:08.844Z,8.58
2018-12-19T14:27:43.002Z,8.65
2018-12-19T14:30:16.755Z,8.47
2018-12-19T14:32:50.818Z,8.51
2018-12-19T14:35:24.724Z,8.51
2018-12-19T14:37:58.631Z,8.54
2018-12-19T14:40:32.436Z,8.47
2018-12-19T14:43:06.241Z,8.35
2018-12-19T14:45:40.049Z,8.23
2018-12-19T14:48:14.054Z,8.21
2018-12-19T14:50:47.707Z,7.94
2018-12-19T14:53:21.664Z,8.03
2018-12-19T14:55:55.673Z,8.13
2018-12-19T14:58:29.332Z,8.03
2018-12-19T15:01:03.294Z,7.65
2018-12-19T15:03:37.294Z,7.93
2018-12-19T15:06:11.200Z,7.94
2018-12-19T15:08:45.108Z,7.99
2018-12-19T15:11:18.924Z,7.95
2018-12-19T15:13:52.715Z,6.56
2018-12-19T15:16:27.648Z,6.91
2018-12-19T15:19:01.453Z,6.30
2018-12-19T15:21:35.668Z,6.30
2018-12-19T15:24:09.476Z,6.91
2018-12-19T15:26:43.659Z,7.22
2018-12-19T15:29:17.696Z,7.39
2018-12-19T15:31:51.507Z,7.49
2018-12-19T15:34:25.517Z,7.36
2018-12-19T15:36:59.528Z,7.08
2018-12-19T15:39:33.497Z,7.26
2018-12-19T15:42:07.644Z,7.34
2018-12-19T15:44:42.574Z,7.34
2018-12-19T15:47:16.380Z,7.30
2018-12-19T15:49:50.285Z,7.21
2018-12-19T15:52:24.195Z,7.16
2018-12-19T15:55:00.135Z,7.27
2018-12-19T15:57:34.054Z,7.31
2018-12-19T16:00:10.215Z,7.33
2018-12-19T16:02:44.225Z,7.29
2018-12-19T16:05:18.234Z,7.27
2018-12-19T16:07:52.039Z,7.01
2018-12-19T16:10:25.844Z,7.00
2018-12-19T16:12:59.750Z,6.94
2018-12-19T16:15:33.457Z,6.83
2018-12-19T16:18:07.637Z,6.97
2018-12-19T16:20:41.678Z,7.04
2018-12-19T16:23:15.688Z,7.08
2018-12-19T16:25:49.481Z,7.11
2018-12-19T16:28:23.604Z,7.19
2018-12-19T16:30:57.512Z,7.23
2018-12-19T16:33:31.623Z,7.19
2018-12-19T16:36:05.391Z,7.18
2018-12-19T16:38:39.437Z,7.16
2018-12-19T16:41:13.345Z,7.18
2018-12-19T16:43:47.165Z,7.16
2018-12-19T16:46:21.159Z,7.18
2018-12-19T16:48:55.169Z,7.14
2018-12-19T16:51:29.178Z,7.14
2018-12-19T16:54:04.109Z,7.20
2018-12-19T16:56:37.913Z,7.19
2018-12-19T16:59:11.923Z,7.14
2018-12-19T17:01:46.035Z,7.06
2018-12-19T17:04:20.664Z,7.08
2018-12-19T17:06:54.669Z,7.11
2018-12-19T17:09:28.579Z,7.18
2018-12-19T17:12:02.386Z,7.16
2018-12-19T17:14:36.290Z,7.19
2018-12-19T17:17:10.064Z,7.19
2018-12-19T17:19:44.210Z,7.14
2018-12-19T17:22:18.118Z,6.97
2018-12-19T17:24:52.124Z,6.83
2018-12-19T17:27:25.894Z,7.00
2018-12-19T17:30:00.056Z,7.09
2018-12-19T17:32:34.770Z,7.14
2018-12-19T17:35:08.839Z,7.17
2018-12-19T17:37:42.887Z,7.18
2018-12-19T17:40:16.898Z,7.20
2018-12-19T17:42:50.908Z,7.12
2018-12-19T17:45:24.920Z,7.09
2018-12-19T17:47:58.730Z,7.07
2018-12-19T17:50:33.244Z,6.96
2018-12-19T17:53:07.048Z,6.96
2018-12-19T17:55:41.057Z,6.92
2018-12-19T17:58:15.069Z,6.91
2018-12-19T18:00:48.834Z,6.95
2018-12-19T18:03:22.830Z,6.87
2018-12-19T18:05:56.892Z,6.32
2018-12-19T18:08:31.440Z,5.97
2018-12-19T18:11:05.525Z,6.00
2018-12-19T18:13:39.649Z,6.19
2018-12-19T18:16:13.544Z,5.86
2018-12-19T18:18:47.451Z,6.09
2018-12-19T18:21:21.359Z,6.25
2018-12-19T18:23:55.266Z,6.37
2018-12-19T18:26:30.024Z,6.41
2018-12-19T18:29:03.925Z,6.45
2018-12-19T18:31:37.807Z,6.49
2018-12-19T18:34:11.920Z,6.44
2018-12-19T18:36:45.976Z,6.40
2018-12-19T18:39:25.955Z,6.38
2018-12-19T18:41:56.202Z,6.41
2018-12-19T18:44:30.008Z,6.43
2018-12-19T18:47:03.914Z,6.42
2018-12-19T18:49:37.720Z,6.42
2018-12-19T18:52:11.530Z,6.47
2018-12-19T18:54:45.434Z,6.44
2018-12-19T18:57:19.752Z,6.48
2018-12-19T18:59:53.512Z,6.48
2018-12-19T19:02:27.365Z,6.02
2018-12-19T19:05:01.573Z,6.13
2018-12-19T19:07:35.490Z,6.26
2018-12-19T19:10:09.693Z,6.32
2018-12-19T19:12:43.503Z,6.35
2018-12-19T19:15:17.510Z,6.35
2018-12-19T19:17:51.213Z,6.37
2018-12-19T19:20:25.184Z,6.33
2018-12-19T19:22:59.232Z,6.35
2018-12-19T19:25:33.046Z,6.32
2018-12-19T19:28:07.146Z,6.26
2018-12-19T19:30:41.158Z,6.19
2018-12-19T19:33:15.064Z,6.18
2018-12-19T19:35:49.234Z,6.15
2018-12-19T19:38:23.064Z,6.13
2018-12-19T19:40:57.195Z,6.05
2018-12-19T19:43:30.841Z,6.00
2018-12-19T19:46:04.805Z,5.97
2018-12-19T19:48:38.577Z,5.95
2018-12-19T19:51:16.971Z,5.90
2018-12-19T19:53:48.472Z,5.88
2018-12-19T19:56:22.482Z,5.82
2018-12-19T19:58:56.360Z,5.79
2018-12-19T20:01:30.503Z,5.80
2018-12-19T20:04:04.513Z,5.80
2018-12-19T20:06:38.725Z,5.65
2018-12-19T20:09:12.736Z,5.56
2018-12-19T20:11:46.440Z,5.52
2018-12-19T20:14:20.145Z,5.48
2018-12-19T20:16:59.750Z,5.33
2018-12-19T20:19:33.791Z,5.37
2018-12-19T20:22:07.800Z,5.40
2018-12-19T20:24:41.811Z,5.33
2018-12-19T20:27:15.819Z,5.28
2018-12-19T20:29:49.828Z,5.14
2018-12-19T20:32:23.736Z,5.08
2018-12-19T20:34:57.470Z,5.18
2018-12-19T20:37:31.448Z,5.28
2018-12-19T20:40:06.073Z,5.35
2018-12-19T20:42:39.877Z,5.33
2018-12-19T20:45:13.681Z,5.38
2018-12-19T20:47:47.692Z,5.30
2018-12-19T20:50:21.702Z,5.22
2018-12-19T20:52:55.959Z,5.19
2018-12-19T20:55:30.036Z,5.16
2018-12-19T20:58:04.005Z,5.13
2018-12-19T21:00:38.251Z,5.16
2018-12-19T21:03:12.365Z,5.18
2018-12-19T21:05:46.276Z,4.94
2018-12-19T21:08:20.384Z,5.23
2018-12-19T21:10:54.397Z,5.16
2018-12-19T21:13:28.303Z,5.10
2018-12-19T21:16:02.089Z,5.16
2018-12-19T21:18:43.077Z,5.09
2018-12-19T21:21:17.166Z,5.02
2018-12-19T21:23:51.301Z,4.93
2018-12-19T21:26:25.106Z,4.86
2018-12-19T21:28:59.012Z,4.90
2018-12-19T21:31:32.818Z,4.92
2018-12-19T21:34:06.623Z,4.96
2018-12-19T21:36:40.530Z,4.94
2018-12-19T21:39:14.243Z,4.96
2018-12-19T21:41:48.142Z,5.00
2018-12-19T21:44:22.150Z,4.99
2018-12-19T21:46:56.056Z,4.95
2018-12-19T21:49:29.870Z,4.60
2018-12-19T21:52:03.876Z,4.88
2018-12-19T21:54:37.911Z,4.88
2018-12-19T21:57:11.849Z,4.88
2018-12-19T21:59:46.002Z,4.86
2018-12-19T22:02:19.808Z,4.82
2018-12-19T22:04:53.620Z,4.78
2018-12-19T22:07:27.531Z,4.76
2018-12-19T22:10:01.588Z,4.75
2018-12-19T22:12:35.514Z,4.69
2018-12-19T22:15:09.603Z,4.65
2018-12-19T22:17:47.522Z,4.59
2018-12-19T22:20:21.561Z,4.56
2018-12-19T22:22:55.548Z,4.56
2018-12-19T22:25:29.683Z,4.53
2018-12-19T22:28:03.552Z,4.50
2018-12-19T22:30:37.662Z,4.50
2018-12-19T22:33:11.716Z,4.56
2018-12-19T22:35:45.822Z,4.64
2018-12-19T22:38:19.891Z,4.57
2018-12-19T22:40:54.100Z,4.57
2018-12-19T22:43:29.188Z,4.67
2018-12-19T22:46:03.108Z,4.76
2018-12-19T22:48:37.215Z,4.46
2018-12-19T22:51:11.086Z,3.61
2018-12-19T22:53:45.225Z,3.25
2018-12-19T22:56:18.891Z,3.30
2018-12-19T22:58:52.878Z,3.71
2018-12-19T23:01:32.779Z,4.36
2018-12-19T23:04:07.193Z,4.71
2018-12-19T23:06:41.275Z,4.89
2018-12-19T23:09:15.319Z,5.03
2018-12-19T23:11:49.229Z,5.11
2018-12-19T23:14:23.236Z,5.19
2018-12-19T23:16:59.301Z,5.21
2018-12-19T23:19:33.304Z,5.22
2018-12-19T23:22:07.130Z,5.23
2018-12-19T23:24:41.119Z,5.26
2018-12-19T23:27:15.257Z,5.30
2018-12-19T23:29:49.343Z,5.31
2018-12-19T23:32:29.065Z,5.32
2018-12-19T23:35:02.889Z,5.27
2018-12-19T23:37:37.003Z,5.24
2018-12-19T23:40:10.948Z,5.06
2018-12-19T23:42:45.066Z,4.89
2018-12-19T23:45:19.543Z,4.91
2018-12-19T23:47:53.415Z,4.97
2018-12-19T23:50:27.368Z,5.05
2018-12-19T23:53:01.419Z,5.27
2018-12-19T23:55:35.533Z,5.39
2018-12-19T23:58:09.436Z,5.41
